createdAt,value
2023-02-26T00:02:02.242Z,3.13
2023-02-26T00:04:47.777Z,3.15
2023-02-26T00:07:32.966Z,3.08
2023-02-26T00:10:18.647Z,2.28
2023-02-26T00:13:04.018Z,2.97
2023-02-26T00:15:55.626Z,2.85
2023-02-26T00:18:40.943Z,2.72
2023-02-26T00:21:27.165Z,2.10
2023-02-26T00:24:12.096Z,2.45
2023-02-26T00:26:57.444Z,2.85
2023-02-26T00:29:42.949Z,2.72
2023-02-26T00:32:29.204Z,3.00
2023-02-26T00:35:16.731Z,2.72
2023-02-26T00:38:06.872Z,3.05
2023-02-26T00:40:54.230Z,2.63
2023-02-26T00:43:39.812Z,2.03
2023-02-26T00:46:34.186Z,2.60
2023-02-26T00:49:48.551Z,2.85
2023-02-26T00:52:44.512Z,2.05
2023-02-26T00:55:29.816Z,2.30
2023-02-26T00:58:14.810Z,2.13
2023-02-26T01:01:00.192Z,2.47
2023-02-26T01:03:45.560Z,2.53
2023-02-26T01:06:33.933Z,2.10
2023-02-26T01:09:29.840Z,2.28
2023-02-26T01:12:17.540Z,2.72
2023-02-26T01:15:03.638Z,3.03
2023-02-26T01:18:06.665Z,3.05
2023-02-26T01:20:57.669Z,2.80
2023-02-26T01:23:47.874Z,2.13
2023-02-26T01:26:33.131Z,2.85
2023-02-26T01:29:18.434Z,2.63
2023-02-26T01:32:11.431Z,2.70
2023-02-26T01:35:13.724Z,1.92
2023-02-26T01:38:03.894Z,2.00
2023-02-26T01:43:50.650Z,2.17
2023-02-26T01:47:10.700Z,2.78
2023-02-26T01:49:56.063Z,2.13
2023-02-26T01:52:50.409Z,2.13
2023-02-26T01:55:36.052Z,2.10
2023-02-26T01:58:23.760Z,2.78
2023-02-26T02:01:09.041Z,2.72
2023-02-26T02:03:54.318Z,2.50
2023-02-26T02:06:39.835Z,2.58
2023-02-26T02:09:25.159Z,2.40
2023-02-26T02:12:13.540Z,2.00
2023-02-26T02:15:11.315Z,1.83
2023-02-26T02:18:24.116Z,3.05
2023-02-26T02:21:34.905Z,1.83
2023-02-26T02:24:33.702Z,1.88
2023-02-26T02:27:54.207Z,1.90
2023-02-26T02:31:15.062Z,2.10
2023-02-26T02:34:21.719Z,1.77
2023-02-26T02:37:31.696Z,2.03
2023-02-26T02:40:40.996Z,2.15
2023-02-26T02:43:31.138Z,2.10
2023-02-26T02:46:28.212Z,2.47
2023-02-26T02:49:20.501Z,1.92
2023-02-26T02:52:29.566Z,1.98
2023-02-26T02:55:21.085Z,2.05
2023-02-26T02:58:17.355Z,1.65
2023-02-26T03:01:08.717Z,2.45
2023-02-26T03:04:02.320Z,2.38
2023-02-26T03:06:50.053Z,1.95
2023-02-26T03:09:35.057Z,2.20
2023-02-26T03:12:20.190Z,1.85
2023-02-26T03:15:05.882Z,2.22
2023-02-26T03:18:10.734Z,2.05
2023-02-26T03:21:16.851Z,2.40
2023-02-26T03:24:17.408Z,1.98
2023-02-26T03:27:30.131Z,1.73
2023-02-26T03:30:20.799Z,1.83
2023-02-26T03:33:18.042Z,1.77
2023-02-26T03:36:16.664Z,1.45
2023-02-26T03:39:18.682Z,1.58
2023-02-26T03:42:21.598Z,1.50
2023-02-26T03:45:17.477Z,1.88
2023-02-26T03:48:07.077Z,2.22
2023-02-26T03:50:56.617Z,1.42
2023-02-26T03:54:01.628Z,2.08
2023-02-26T03:56:48.242Z,2.13
2023-02-26T03:59:35.008Z,1.75
2023-02-26T04:02:53.518Z,2.15
2023-02-26T04:05:42.286Z,1.92
2023-02-26T04:08:29.848Z,1.97
2023-02-26T04:11:19.124Z,2.38
2023-02-26T04:14:04.535Z,1.95
2023-02-26T04:16:49.691Z,1.83
2023-02-26T04:19:34.899Z,1.83
2023-02-26T04:22:19.963Z,2.45
2023-02-26T04:25:05.559Z,2.10
2023-02-26T04:27:50.933Z,1.65
2023-02-26T04:30:35.939Z,1.77
2023-02-26T04:33:21.228Z,1.65
2023-02-26T04:36:06.267Z,2.03
2023-02-26T04:38:51.532Z,2.20
2023-02-26T04:41:37.832Z,1.92
2023-02-26T04:44:22.780Z,2.10
2023-02-26T04:47:08.058Z,1.85
2023-02-26T04:49:53.116Z,2.08
2023-02-26T04:52:38.061Z,2.38
2023-02-26T04:55:23.358Z,2.22
2023-02-26T04:58:08.896Z,2.10
2023-02-26T05:00:54.875Z,2.40
2023-02-26T05:03:40.039Z,1.42
2023-02-26T05:06:25.512Z,1.92
2023-02-26T05:09:11.135Z,2.05
2023-02-26T05:11:56.424Z,1.70
2023-02-26T05:14:41.692Z,1.35
2023-02-26T05:17:27.222Z,1.88
2023-02-26T05:20:12.802Z,2.20
2023-02-26T05:22:57.631Z,2.05
2023-02-26T05:25:42.844Z,1.67
2023-02-26T05:28:28.830Z,1.75
2023-02-26T05:31:14.133Z,1.98
2023-02-26T05:33:59.502Z,1.50
2023-02-26T05:36:44.219Z,1.48
2023-02-26T05:39:29.278Z,1.92
2023-02-26T05:42:14.590Z,2.25
2023-02-26T05:44:59.746Z,1.80
2023-02-26T05:47:44.933Z,1.77
2023-02-26T05:50:30.697Z,2.20
2023-02-26T05:53:15.796Z,1.85
2023-02-26T05:56:01.010Z,1.90
2023-02-26T05:58:46.674Z,2.05
2023-02-26T06:01:32.030Z,2.10
2023-02-26T06:04:17.501Z,1.45
2023-02-26T06:07:02.843Z,1.35
2023-02-26T06:09:48.143Z,2.10
2023-02-26T06:12:33.231Z,1.70
2023-02-26T06:15:18.196Z,1.40
2023-02-26T06:18:03.540Z,2.03
2023-02-26T06:20:48.940Z,1.63
2023-02-26T06:23:33.879Z,1.60
2023-02-26T06:26:19.237Z,1.60
2023-02-26T06:29:04.539Z,1.42
2023-02-26T06:31:50.092Z,2.78
2023-02-26T06:34:35.119Z,1.75
2023-02-26T06:37:20.480Z,1.55
2023-02-26T06:40:06.719Z,1.90
2023-02-26T06:42:52.000Z,1.67
2023-02-26T06:45:37.289Z,1.95
2023-02-26T06:48:22.603Z,1.75
2023-02-26T06:51:07.760Z,2.15
2023-02-26T06:53:53.457Z,1.92
2023-02-26T06:56:38.529Z,1.40
2023-02-26T06:59:24.752Z,1.67
2023-02-26T07:02:16.875Z,1.73
2023-02-26T07:05:02.045Z,1.38
2023-02-26T07:07:47.383Z,1.63
2023-02-26T07:10:34.127Z,1.60
2023-02-26T07:13:19.501Z,1.23
2023-02-26T07:16:07.341Z,1.60
2023-02-26T07:18:52.641Z,1.35
2023-02-26T07:21:37.609Z,1.52
2023-02-26T07:24:23.197Z,1.60
2023-02-26T07:27:08.555Z,1.38
2023-02-26T07:29:53.684Z,1.20
2023-02-26T07:32:39.395Z,1.08
2023-02-26T07:35:24.638Z,1.25
2023-02-26T07:38:09.815Z,1.10
2023-02-26T07:40:56.516Z,1.80
2023-02-26T07:43:42.634Z,1.20
2023-02-26T07:46:28.128Z,1.48
2023-02-26T07:49:13.655Z,1.63
2023-02-26T07:51:58.654Z,1.40
2023-02-26T07:54:43.920Z,2.47
2023-02-26T07:57:29.173Z,2.00
2023-02-26T08:00:15.376Z,1.40
2023-02-26T08:03:00.307Z,1.40
2023-02-26T08:05:45.503Z,1.52
2023-02-26T08:08:30.828Z,1.42
2023-02-26T08:11:16.161Z,1.38
2023-02-26T08:14:01.511Z,1.40
2023-02-26T08:16:46.712Z,1.05
2023-02-26T08:19:32.539Z,1.35
2023-02-26T08:22:17.996Z,1.65
2023-02-26T08:25:03.793Z,1.80
2023-02-26T08:27:48.690Z,1.60
2023-02-26T08:30:33.758Z,1.00
2023-02-26T08:33:19.377Z,1.30
2023-02-26T08:36:05.018Z,1.52
2023-02-26T08:38:50.232Z,1.52
2023-02-26T08:41:36.260Z,1.20
2023-02-26T08:44:21.253Z,1.77
2023-02-26T08:47:06.521Z,1.60
2023-02-26T08:49:51.812Z,1.42
2023-02-26T08:52:36.842Z,1.63
2023-02-26T08:55:22.707Z,1.67
2023-02-26T08:58:08.397Z,1.42
2023-02-26T09:00:53.775Z,1.63
2023-02-26T09:03:38.759Z,2.10
2023-02-26T09:06:23.891Z,1.45
2023-02-26T09:09:10.124Z,1.38
2023-02-26T09:11:55.199Z,1.45
2023-02-26T09:14:40.175Z,1.25
2023-02-26T09:17:25.986Z,1.65
2023-02-26T09:20:12.150Z,1.55
2023-02-26T09:22:57.014Z,2.05
2023-02-26T09:25:42.368Z,1.55
2023-02-26T09:28:27.649Z,1.75
2023-02-26T09:31:13.327Z,1.55
2023-02-26T09:33:58.361Z,1.48
2023-02-26T09:36:44.194Z,1.60
2023-02-26T09:39:29.429Z,1.60
2023-02-26T09:42:24.641Z,1.73
2023-02-26T09:45:30.133Z,1.75
2023-02-26T09:48:19.109Z,1.90
2023-02-26T09:51:07.330Z,1.65
2023-02-26T09:53:53.325Z,1.85
2023-02-26T09:56:38.666Z,1.13
2023-02-26T09:59:23.609Z,1.70
2023-02-26T10:02:24.311Z,1.77
2023-02-26T10:05:19.048Z,1.83
2023-02-26T10:08:12.686Z,1.58
2023-02-26T10:11:07.497Z,1.80
2023-02-26T10:14:06.729Z,1.70
2023-02-26T10:16:58.229Z,1.45
2023-02-26T10:19:47.658Z,1.83
2023-02-26T10:22:46.701Z,1.60
2023-02-26T10:25:41.360Z,1.88
2023-02-26T10:28:48.764Z,1.70
2023-02-26T10:31:58.279Z,1.52
2023-02-26T10:35:04.474Z,1.88
2023-02-26T10:38:05.570Z,0.98
2023-02-26T10:41:04.669Z,1.40
2023-02-26T10:44:02.051Z,1.05
2023-02-26T10:46:59.576Z,1.17
2023-02-26T10:49:50.655Z,1.40
2023-02-26T10:52:36.522Z,1.17
2023-02-26T10:55:39.080Z,1.30
2023-02-26T10:58:25.927Z,0.95
2023-02-26T11:01:16.853Z,0.90
2023-02-26T11:04:07.277Z,1.20
2023-02-26T11:06:58.664Z,1.02
2023-02-26T11:09:45.801Z,0.77
2023-02-26T11:12:32.517Z,1.00
2023-02-26T11:15:21.120Z,1.10
2023-02-26T11:18:06.046Z,1.35
2023-02-26T11:20:55.724Z,0.90
2023-02-26T11:26:35.829Z,1.13
2023-02-26T11:29:23.165Z,1.05
2023-02-26T11:32:17.697Z,1.42
2023-02-26T11:35:08.660Z,1.30
2023-02-26T11:37:59.898Z,1.58
2023-02-26T11:40:53.722Z,1.80
2023-02-26T11:43:49.613Z,1.38
2023-02-26T11:46:45.056Z,1.15
2023-02-26T11:49:30.325Z,0.93
2023-02-26T11:52:20.878Z,0.80
2023-02-26T11:55:19.152Z,1.00
2023-02-26T11:58:17.882Z,1.20
2023-02-26T12:01:04.539Z,0.70
2023-02-26T12:03:51.194Z,0.88
2023-02-26T12:06:36.665Z,1.00
2023-02-26T12:09:22.922Z,0.75
2023-02-26T12:12:34.332Z,1.10
2023-02-26T12:15:40.847Z,0.57
2023-02-26T12:18:51.383Z,0.64
2023-02-26T12:22:07.249Z,0.85
2023-02-26T12:25:11.032Z,0.60
2023-02-26T12:28:17.750Z,0.60
2023-02-26T12:31:15.660Z,1.70
2023-02-26T12:34:07.956Z,0.77
2023-02-26T12:37:05.133Z,0.80
2023-02-26T12:39:50.222Z,0.70
2023-02-26T12:42:41.616Z,0.30
2023-02-26T12:45:55.882Z,0.30
2023-02-26T12:49:02.393Z,0.47
2023-02-26T12:51:54.531Z,0.50
2023-02-26T12:54:55.465Z,0.50
2023-02-26T12:58:01.773Z,0.55
2023-02-26T13:01:09.482Z,0.60
2023-02-26T13:04:04.598Z,0.80
2023-02-26T13:07:17.853Z,0.68
2023-02-26T13:10:21.752Z,0.70
2023-02-26T13:13:45.463Z,0.90
2023-02-26T13:16:50.347Z,0.82
2023-02-26T13:19:50.523Z,0.88
2023-02-26T13:22:46.076Z,0.60
2023-02-26T13:25:53.588Z,0.85
2023-02-26T13:28:39.284Z,0.82
2023-02-26T13:31:33.800Z,1.50
2023-02-26T13:34:26.406Z,1.63
2023-02-26T13:37:26.135Z,1.48
2023-02-26T13:40:14.117Z,0.90
2023-02-26T13:43:31.412Z,1.23
2023-02-26T13:46:34.985Z,0.90
2023-02-26T13:49:23.643Z,2.50
2023-02-26T13:52:24.055Z,4.70
2023-02-26T13:55:41.045Z,1.27
2023-02-26T13:58:49.639Z,3.67
2023-02-26T14:02:01.656Z,1.30
2023-02-26T14:04:51.557Z,0.95
2023-02-26T14:07:55.931Z,1.33
2023-02-26T14:10:47.335Z,1.20
2023-02-26T14:13:39.505Z,1.30
2023-02-26T14:16:29.366Z,1.38
2023-02-26T14:22:09.243Z,1.20
2023-02-26T14:25:09.731Z,1.35
2023-02-26T14:28:20.353Z,1.92
2023-02-26T14:31:11.681Z,1.60
2023-02-26T14:33:56.623Z,1.50
2023-02-26T14:36:44.522Z,0.80
2023-02-26T14:39:34.839Z,0.88
2023-02-26T14:42:35.312Z,1.52
2023-02-26T14:45:31.337Z,1.10
2023-02-26T14:48:25.164Z,1.42
2023-02-26T14:51:34.973Z,0.90
2023-02-26T14:57:25.610Z,1.20
2023-02-26T15:00:30.080Z,1.10
2023-02-26T15:03:30.767Z,0.60
2023-02-26T15:06:33.034Z,1.08
2023-02-26T15:09:21.784Z,1.33
2023-02-26T15:12:31.844Z,1.00
2023-02-26T15:16:04.776Z,1.00
2023-02-26T15:18:58.708Z,1.00
2023-02-26T15:21:59.864Z,1.98
2023-02-26T15:24:44.993Z,0.95
2023-02-26T15:27:32.469Z,0.98
2023-02-26T15:30:18.155Z,0.82
2023-02-26T15:33:13.184Z,1.25
2023-02-26T15:35:59.814Z,0.80
2023-02-26T15:38:50.553Z,0.70
2023-02-26T15:41:36.660Z,0.75
2023-02-26T15:44:32.046Z,0.95
2023-02-26T15:47:18.170Z,1.00
2023-02-26T15:50:04.098Z,1.00
2023-02-26T15:52:54.275Z,1.35
2023-02-26T15:55:50.990Z,0.98
2023-02-26T15:58:45.997Z,0.90
2023-02-26T16:01:32.110Z,1.23
2023-02-26T16:04:19.608Z,1.25
2023-02-26T16:07:04.782Z,1.13
2023-02-26T16:09:52.764Z,1.08
2023-02-26T16:12:43.734Z,0.75
2023-02-26T16:15:38.501Z,1.15
2023-02-26T16:18:26.252Z,1.35
2023-02-26T16:21:29.040Z,1.02
2023-02-26T16:24:23.081Z,1.08
2023-02-26T16:27:13.247Z,1.00
2023-02-26T16:32:46.658Z,1.88
2023-02-26T16:35:37.380Z,1.85
2023-02-26T16:38:26.586Z,1.20
2023-02-26T16:41:12.420Z,1.33
2023-02-26T16:44:01.313Z,4.28
2023-02-26T16:46:46.916Z,2.38
2023-02-26T16:49:34.919Z,1.38
2023-02-26T16:52:25.721Z,1.05
2023-02-26T16:55:18.379Z,1.67
2023-02-26T16:58:07.480Z,1.70
2023-02-26T17:01:09.376Z,1.48
2023-02-26T17:04:03.753Z,1.45
2023-02-26T17:06:49.118Z,1.10
2023-02-26T17:09:37.883Z,1.40
2023-02-26T17:12:30.109Z,1.85
2023-02-26T17:15:26.844Z,1.60
2023-02-26T17:18:13.650Z,1.75
2023-02-26T17:21:05.042Z,1.42
2023-02-26T17:23:50.862Z,1.75
2023-02-26T17:26:36.058Z,1.55
2023-02-26T17:29:27.995Z,1.33
2023-02-26T17:32:22.801Z,1.58
2023-02-26T17:35:09.100Z,1.70
2023-02-26T17:37:54.874Z,1.43
2023-02-26T17:40:40.921Z,1.20
2023-02-26T17:43:26.300Z,1.85
2023-02-26T17:46:12.581Z,2.15
2023-02-26T17:48:57.990Z,2.20
2023-02-26T17:51:43.399Z,1.70
2023-02-26T17:54:28.520Z,1.50
2023-02-26T17:57:19.504Z,1.70
2023-02-26T18:00:05.467Z,2.63
2023-02-26T18:02:51.593Z,3.22
2023-02-26T18:05:39.200Z,3.35
2023-02-26T18:08:30.582Z,4.63
2023-02-26T18:11:17.378Z,2.53
2023-02-26T18:14:02.600Z,4.00
2023-02-26T18:16:47.919Z,2.92
2023-02-26T18:19:33.219Z,2.60
2023-02-26T18:22:19.937Z,3.15
2023-02-26T18:25:05.377Z,6.20
2023-02-26T18:27:54.676Z,4.20
2023-02-26T18:30:40.604Z,4.05
2023-02-26T18:33:26.316Z,4.25
2023-02-26T18:36:29.678Z,4.47
2023-02-26T18:39:16.067Z,6.22
2023-02-26T18:42:01.052Z,9.02
2023-02-26T18:44:46.185Z,5.70
2023-02-26T18:47:31.456Z,6.32
2023-02-26T18:50:18.067Z,4.80
2023-02-26T18:53:03.678Z,6.10
2023-02-26T18:55:53.842Z,4.75
2023-02-26T18:58:40.528Z,7.35
2023-02-26T19:01:25.930Z,5.05
2023-02-26T19:04:11.023Z,5.15
2023-02-26T19:06:56.724Z,5.45
2023-02-26T19:09:41.695Z,5.10
2023-02-26T19:12:26.941Z,5.93
2023-02-26T19:15:13.486Z,6.30
2023-02-26T19:17:58.680Z,9.82
2023-02-26T19:20:44.273Z,5.72
2023-02-26T19:23:29.448Z,5.20
2023-02-26T19:26:14.710Z,4.10
2023-02-26T19:29:00.323Z,4.68
2023-02-26T19:31:46.685Z,4.43
2023-02-26T19:34:32.501Z,3.83
2023-02-26T19:37:17.418Z,5.00
2023-02-26T19:40:08.002Z,4.25
2023-02-26T19:42:53.637Z,3.95
2023-02-26T19:45:38.535Z,3.80
2023-02-26T19:48:23.629Z,2.92
2023-02-26T19:51:09.294Z,3.40
2023-02-26T19:53:54.491Z,3.20
2023-02-26T19:56:40.656Z,3.38
2023-02-26T19:59:25.618Z,3.08
2023-02-26T20:02:10.913Z,3.60
2023-02-26T20:04:56.188Z,3.33
2023-02-26T20:07:41.442Z,4.55
2023-02-26T20:10:26.949Z,4.65
2023-02-26T20:13:13.462Z,3.50
2023-02-26T20:15:59.064Z,3.17
2023-02-26T20:18:45.786Z,3.55
2023-02-26T20:21:30.892Z,2.97
2023-02-26T20:24:16.217Z,2.30
2023-02-26T20:27:01.328Z,2.58
2023-02-26T20:29:47.159Z,2.25
2023-02-26T20:32:32.502Z,2.60
2023-02-26T20:35:18.375Z,2.05
2023-02-26T20:38:03.795Z,1.95
2023-02-26T20:40:49.291Z,1.80
2023-02-26T20:43:34.814Z,1.98
2023-02-26T20:46:19.866Z,2.08
2023-02-26T20:49:11.603Z,1.70
2023-02-26T20:51:56.952Z,6.22
2023-02-26T20:54:41.943Z,3.95
2023-02-26T20:57:27.059Z,3.80
2023-02-26T21:00:15.375Z,3.92
2023-02-26T21:03:00.710Z,3.90
2023-02-26T21:05:47.181Z,8.45
2023-02-26T21:08:33.541Z,8.00
2023-02-26T21:11:18.829Z,7.20
2023-02-26T21:14:05.914Z,2.78
2023-02-26T21:16:51.032Z,6.15
2023-02-26T21:19:36.765Z,4.43
2023-02-26T21:22:22.146Z,3.83
2023-02-26T21:25:08.211Z,4.35
2023-02-26T21:27:53.514Z,4.90
2023-02-26T21:30:38.504Z,7.30
2023-02-26T21:33:23.797Z,11.20
2023-02-26T21:36:10.063Z,6.40
2023-02-26T21:38:55.008Z,5.07
2023-02-26T21:41:40.484Z,11.98
2023-02-26T21:44:27.197Z,14.70
2023-02-26T21:47:12.545Z,11.80
2023-02-26T21:49:57.840Z,18.10
2023-02-26T21:52:43.065Z,9.25
2023-02-26T21:55:28.427Z,30.88
2023-02-26T21:58:13.641Z,6.63
2023-02-26T22:00:59.736Z,9.20
2023-02-26T22:03:44.950Z,16.00
2023-02-26T22:06:30.219Z,12.18
2023-02-26T22:09:17.369Z,3.33
2023-02-26T22:12:03.252Z,3.30
2023-02-26T22:14:49.301Z,2.10
2023-02-26T22:17:34.712Z,1.75
2023-02-26T22:20:19.974Z,1.85
2023-02-26T22:23:05.316Z,2.35
2023-02-26T22:25:50.624Z,2.15
2023-02-26T22:28:35.924Z,2.00
2023-02-26T22:31:21.395Z,2.67
2023-02-26T22:34:06.534Z,3.65
2023-02-26T22:36:52.234Z,2.63
2023-02-26T22:39:37.402Z,1.88
2023-02-26T22:42:22.888Z,1.70
2023-02-26T22:45:08.840Z,2.13
2023-02-26T22:47:54.383Z,1.65
2023-02-26T22:50:39.431Z,1.40
2023-02-26T22:53:24.527Z,2.40
2023-02-26T22:56:09.516Z,1.88
2023-02-26T22:58:54.724Z,1.90
2023-02-26T23:01:40.288Z,1.58
2023-02-26T23:04:25.838Z,1.52
2023-02-26T23:07:11.568Z,2.00
2023-02-26T23:09:56.948Z,2.00
2023-02-26T23:12:43.338Z,1.60
2023-02-26T23:15:28.258Z,1.77
2023-02-26T23:18:13.580Z,2.00
2023-02-26T23:20:59.042Z,1.48
2023-02-26T23:23:44.319Z,1.88
2023-02-26T23:26:29.432Z,1.92
2023-02-26T23:29:14.709Z,1.55
2023-02-26T23:31:59.822Z,2.10
2023-02-26T23:34:44.887Z,1.70
2023-02-26T23:37:30.293Z,1.92
2023-02-26T23:40:15.659Z,1.70
2023-02-26T23:43:00.482Z,2.13
2023-02-26T23:45:45.411Z,1.48
2023-02-26T23:48:30.430Z,1.88
2023-02-26T23:51:15.741Z,1.80
2023-02-26T23:54:00.618Z,1.65
2023-02-26T23:56:47.404Z,1.65
2023-02-26T23:59:32.755Z,1.52
